createdAt,value
2018-12-25T00:02:12.682Z,103282.78
2018-12-25T00:04:54.392Z,103283.24
2018-12-25T00:07:42.840Z,103276.27
2018-12-25T00:10:24.251Z,103276.86
2018-12-25T00:13:12.650Z,103271.46
2018-12-25T00:15:53.448Z,103280.55
2018-12-25T00:18:41.955Z,103278.77
2018-12-25T00:21:23.610Z,103264.08
2018-12-25T00:24:12.187Z,103269.27
2018-12-25T00:26:53.759Z,103270.73
2018-12-25T00:29:42.500Z,103265.28
2018-12-25T00:32:23.668Z,103257.70
2018-12-25T00:35:12.172Z,103265.28
2018-12-25T00:37:55.063Z,103267.63
2018-12-25T00:40:43.608Z,103264.55
2018-12-25T00:43:24.436Z,103264.38
2018-12-25T00:46:12.760Z,103266.34
2018-12-25T00:48:54.174Z,103259.91
2018-12-25T00:51:42.779Z,103268.35
2018-12-25T00:54:25.676Z,103276.77
2018-12-25T00:56:54.955Z,103286.61
2018-12-25T00:59:37.540Z,103286.62
2018-12-25T01:02:26.363Z,103289.27
2018-12-25T01:05:07.568Z,103290.02
2018-12-25T01:07:56.112Z,103290.80
2018-12-25T01:10:37.288Z,103286.02
2018-12-25T01:13:25.861Z,103289.97
2018-12-25T01:16:07.136Z,103285.05
2018-12-25T01:18:55.725Z,103280.95
2018-12-25T01:21:36.809Z,103276.02
2018-12-25T01:24:25.204Z,103275.61
2018-12-25T01:27:06.598Z,103271.22
2018-12-25T01:29:55.670Z,103269.66
2018-12-25T01:32:37.431Z,103261.55
2018-12-25T01:35:25.923Z,103266.44
2018-12-25T01:38:07.454Z,103270.28
2018-12-25T01:40:36.698Z,103271.89
2018-12-25T01:43:18.361Z,103271.72
2018-12-25T01:46:06.826Z,103268.35
2018-12-25T01:48:49.831Z,103271.72
2018-12-25T01:51:38.513Z,103259.59
2018-12-25T01:54:19.760Z,103246.91
2018-12-25T01:57:08.255Z,103243.94
2018-12-25T01:59:49.959Z,103234.52
2018-12-25T02:02:38.417Z,103244.77
2018-12-25T02:05:19.749Z,103247.81
2018-12-25T02:08:08.115Z,103238.12
2018-12-25T02:10:49.743Z,103240.61
2018-12-25T02:13:38.285Z,103228.70
2018-12-25T02:16:19.090Z,103227.19
2018-12-25T02:19:07.592Z,103229.33
2018-12-25T02:21:49.068Z,103237.15
2018-12-25T02:24:37.591Z,103245.37
2018-12-25T02:27:19.202Z,103239.92
2018-12-25T02:30:07.890Z,103240.94
2018-12-25T02:32:48.976Z,103241.38
2018-12-25T02:35:37.569Z,103240.55
2018-12-25T02:38:19.064Z,103243.22
2018-12-25T02:41:07.388Z,103239.20
2018-12-25T02:43:49.173Z,103240.29
2018-12-25T02:46:37.741Z,103229.34
2018-12-25T02:49:21.199Z,103232.08
2018-12-25T02:52:09.836Z,103226.96
2018-12-25T02:54:51.072Z,103219.87
2018-12-25T02:57:39.484Z,103231.09
2018-12-25T03:00:20.908Z,103234.91
2018-12-25T03:03:09.326Z,103217.76
2018-12-25T03:05:50.780Z,103227.23
2018-12-25T03:08:39.380Z,103231.09
2018-12-25T03:11:20.524Z,103230.30
2018-12-25T03:14:08.953Z,103222.23
2018-12-25T03:16:38.411Z,103215.97
2018-12-25T03:19:26.783Z,103217.89
2018-12-25T03:22:07.925Z,103224.94
2018-12-25T03:24:56.241Z,103222.77
2018-12-25T03:27:38.030Z,103219.33
2018-12-25T03:30:26.680Z,103216.83
2018-12-25T03:33:08.282Z,103226.13
2018-12-25T03:35:38.167Z,103211.23
2018-12-25T03:38:19.807Z,103219.59
2018-12-25T03:41:08.399Z,103214.44
2018-12-25T03:43:49.214Z,103216.46
2018-12-25T03:46:37.671Z,103214.81
2018-12-25T03:49:19.458Z,103205.91
2018-12-25T03:52:07.938Z,103199.09
2018-12-25T03:54:49.795Z,103193.16
2018-12-25T03:57:38.232Z,103195.80
2018-12-25T04:00:19.393Z,103191.50
2018-12-25T04:03:08.070Z,103183.91
2018-12-25T04:05:47.652Z,103177.09
2018-12-25T04:08:36.982Z,103177.67
2018-12-25T04:11:17.983Z,103174.94
2018-12-25T04:14:06.389Z,103168.44
2018-12-25T04:16:48.116Z,103174.97
2018-12-25T04:19:36.669Z,103183.41
2018-12-25T04:22:17.913Z,103186.59
2018-12-25T04:25:06.534Z,103192.55
2018-12-25T04:27:48.301Z,103186.88
2018-12-25T04:30:36.724Z,103180.89
2018-12-25T04:33:18.281Z,103181.49
2018-12-25T04:36:07.081Z,103188.52
2018-12-25T04:38:48.326Z,103195.58
2018-12-25T04:41:36.780Z,103198.58
2018-12-25T04:44:18.254Z,103198.84
2018-12-25T04:47:06.860Z,103191.23
2018-12-25T04:49:48.196Z,103197.22
2018-12-25T04:52:36.984Z,103199.09
2018-12-25T04:55:18.273Z,103191.55
2018-12-25T04:58:06.568Z,103190.75
2018-12-25T05:00:48.087Z,103194.25
2018-12-25T05:03:36.670Z,103191.02
2018-12-25T05:06:17.731Z,103192.09
2018-12-25T05:09:06.982Z,103189.47
2018-12-25T05:11:48.326Z,103176.70
2018-12-25T05:14:36.802Z,103179.70
2018-12-25T05:17:18.256Z,103177.23
2018-12-25T05:20:40.881Z,103179.98
2018-12-25T05:23:22.187Z,103185.09
2018-12-25T05:26:02.682Z,103183.78
2018-12-25T05:28:50.655Z,103184.89
2018-12-25T05:31:33.655Z,103188.97
2018-12-25T05:34:21.601Z,103193.03
2018-12-25T05:37:03.933Z,103181.91
2018-12-25T05:39:52.018Z,103178.12
2018-12-25T05:42:33.096Z,103193.30
2018-12-25T05:45:21.048Z,103184.14
2018-12-25T05:48:02.534Z,103172.72
2018-12-25T05:50:46.817Z,103176.53
2018-12-25T05:53:33.463Z,103181.63
2018-12-25T05:56:14.869Z,103181.97
2018-12-25T05:59:03.285Z,103184.33
2018-12-25T06:01:43.892Z,103189.27
2018-12-25T06:04:32.086Z,103181.65
2018-12-25T06:07:12.906Z,103184.34
2018-12-25T06:10:00.972Z,103183.22
2018-12-25T06:12:41.912Z,103181.38
2018-12-25T06:15:29.892Z,103190.02
2018-12-25T06:18:11.372Z,103186.48
2018-12-25T06:20:59.283Z,103181.38
2018-12-25T06:23:42.096Z,103183.53
2018-12-25T06:26:30.107Z,103180.59
2018-12-25T06:29:11.429Z,103180.34
2018-12-25T06:31:59.438Z,103174.88
2018-12-25T06:34:40.658Z,103183.53
2018-12-25T06:37:28.833Z,103184.30
2018-12-25T06:40:09.864Z,103175.39
2018-12-25T06:42:57.996Z,103174.04
2018-12-25T06:45:40.332Z,103175.47
2018-12-25T06:48:28.313Z,103163.47
2018-12-25T06:51:11.581Z,103151.56
2018-12-25T06:53:59.439Z,103140.50
2018-12-25T06:56:40.506Z,103145.37
2018-12-25T06:59:29.168Z,103145.36
2018-12-25T07:02:10.384Z,103154.31
2018-12-25T07:04:58.325Z,103161.94
2018-12-25T07:07:39.369Z,103164.63
2018-12-25T07:10:27.542Z,103167.06
2018-12-25T07:13:10.739Z,103170.58
2018-12-25T07:15:58.699Z,103163.85
2018-12-25T07:18:39.910Z,103172.53
2018-12-25T07:21:27.905Z,103167.92
2018-12-25T07:24:08.734Z,103159.51
2018-12-25T07:26:56.494Z,103157.07
2018-12-25T07:29:37.472Z,103151.67
2018-12-25T07:32:25.689Z,103152.22
2018-12-25T07:35:06.781Z,103157.58
2018-12-25T07:37:54.710Z,103167.89
2018-12-25T07:40:35.798Z,103169.77
2018-12-25T07:43:23.756Z,103170.58
2018-12-25T07:46:04.845Z,103168.15
2018-12-25T07:48:52.899Z,103182.47
2018-12-25T07:51:34.055Z,103175.98
2018-12-25T07:54:22.003Z,103177.06
2018-12-25T07:57:03.088Z,103178.47
2018-12-25T07:59:50.927Z,103175.18
2018-12-25T08:02:31.897Z,103177.09
2018-12-25T08:05:19.867Z,103165.72
2018-12-25T08:07:59.035Z,103179.01
2018-12-25T08:10:47.028Z,103174.66
2018-12-25T08:13:27.768Z,103185.52
2018-12-25T08:16:18.374Z,103184.41
2018-12-25T08:18:59.460Z,103184.73
2018-12-25T08:21:47.685Z,103179.31
2018-12-25T08:24:28.980Z,103176.06
2018-12-25T08:27:16.989Z,103165.77
2018-12-25T08:29:58.285Z,103161.17
2018-12-25T08:32:46.136Z,103157.10
2018-12-25T08:35:29.155Z,103167.39
2018-12-25T08:38:17.055Z,103164.98
2018-12-25T08:41:00.346Z,103160.89
2018-12-25T08:43:48.382Z,103161.75
2018-12-25T08:46:29.356Z,103157.67
2018-12-25T08:49:10.102Z,103155.00
2018-12-25T08:51:51.458Z,103156.06
2018-12-25T08:54:39.632Z,103155.81
2018-12-25T08:57:20.682Z,103158.78
2018-12-25T09:00:11.109Z,103164.81
2018-12-25T09:02:51.855Z,103174.85
2018-12-25T09:05:39.996Z,103166.97
2018-12-25T09:08:19.062Z,103169.70
2018-12-25T09:11:06.985Z,103161.86
2018-12-25T09:13:47.903Z,103162.11
2018-12-25T09:16:36.074Z,103161.85
2018-12-25T09:19:17.066Z,103159.95
2018-12-25T09:22:05.031Z,103163.22
2018-12-25T09:24:46.137Z,103165.66
2018-12-25T09:27:34.086Z,103159.14
2018-12-25T09:30:15.413Z,103166.21
2018-12-25T09:33:04.505Z,103170.56
2018-12-25T09:35:47.151Z,103175.98
2018-12-25T09:38:35.157Z,103171.38
2018-12-25T09:41:16.442Z,103169.20
2018-12-25T09:44:04.265Z,103165.95
2018-12-25T09:46:45.283Z,103168.38
2018-12-25T09:49:33.127Z,103174.08
2018-12-25T09:52:14.340Z,103175.15
2018-12-25T09:55:02.272Z,103165.67
2018-12-25T09:57:45.442Z,103159.97
2018-12-25T10:00:33.408Z,103162.41
2018-12-25T10:03:14.630Z,103161.87
2018-12-25T10:06:02.664Z,103165.68
2018-12-25T10:08:43.633Z,103168.66
2018-12-25T10:11:31.499Z,103167.86
2018-12-25T10:14:12.133Z,103161.59
2018-12-25T10:17:00.141Z,103167.86
2018-12-25T10:19:41.669Z,103175.42
2018-12-25T10:22:29.536Z,103172.45
2018-12-25T10:25:10.235Z,103173.83
2018-12-25T10:27:58.054Z,103161.88
2018-12-25T10:30:39.427Z,103168.94
2018-12-25T10:33:27.279Z,103159.98
2018-12-25T10:36:10.535Z,103162.95
2018-12-25T10:38:58.680Z,103155.63
2018-12-25T10:41:39.836Z,103160.81
2018-12-25T10:44:27.652Z,103159.70
2018-12-25T10:47:07.084Z,103149.39
2018-12-25T10:49:55.113Z,103147.50
2018-12-25T10:52:36.187Z,103144.51
2018-12-25T10:55:24.273Z,103137.98
2018-12-25T10:58:05.548Z,103133.91
2018-12-25T11:00:58.501Z,103138.27
2018-12-25T11:03:39.660Z,103136.09
2018-12-25T11:06:27.675Z,103132.30
2018-12-25T11:09:09.020Z,103131.75
2018-12-25T11:11:56.996Z,103137.17
2018-12-25T11:14:38.016Z,103133.66
2018-12-25T11:17:26.554Z,103131.73
2018-12-25T11:20:11.515Z,103133.09
2018-12-25T11:23:00.929Z,103133.38
2018-12-25T11:25:41.687Z,103127.64
2018-12-25T11:28:30.651Z,103127.92
2018-12-25T11:31:11.758Z,103123.28
2018-12-25T11:33:59.829Z,103119.75
2018-12-25T11:36:41.037Z,103114.04
2018-12-25T11:39:29.063Z,103115.64
2018-12-25T11:42:10.726Z,103117.58
2018-12-25T11:44:58.567Z,103112.39
2018-12-25T11:47:39.434Z,103127.84
2018-12-25T11:53:34.376Z,103129.17
2018-12-25T11:56:22.734Z,103140.85
2018-12-25T11:59:03.636Z,103134.11
2018-12-25T12:01:51.610Z,103141.15
2018-12-25T12:04:32.538Z,103144.70
2018-12-25T12:07:20.708Z,103140.63
2018-12-25T12:10:01.845Z,103136.30
2018-12-25T12:12:50.192Z,103136.00
2018-12-25T12:15:30.955Z,103138.98
2018-12-25T12:18:18.991Z,103130.29
2018-12-25T12:21:00.096Z,103138.16
2018-12-25T12:23:47.910Z,103134.88
2018-12-25T12:26:29.068Z,103136.83
2018-12-25T12:29:17.092Z,103144.70
2018-12-25T12:31:58.485Z,103143.34
2018-12-25T12:34:46.350Z,103129.47
2018-12-25T12:37:27.529Z,103124.61
2018-12-25T12:40:15.837Z,103121.89
2018-12-25T12:42:56.778Z,103113.48
2018-12-25T12:45:44.643Z,103111.59
2018-12-25T12:48:25.883Z,103120.22
2018-12-25T12:51:14.335Z,103113.77
2018-12-25T12:53:55.097Z,103110.25
2018-12-25T12:56:43.454Z,103117.80
2018-12-25T12:59:24.510Z,103114.81
2018-12-25T13:02:12.567Z,103109.34
2018-12-25T13:04:53.863Z,103107.23
2018-12-25T13:07:41.900Z,103111.80
2018-12-25T13:10:23.150Z,103101.22
2018-12-25T13:13:11.219Z,103101.77
2018-12-25T13:16:11.500Z,103100.09
2018-12-25T13:18:59.482Z,103098.81
2018-12-25T13:21:40.455Z,103108.55
2018-12-25T13:24:29.115Z,103118.36
2018-12-25T13:27:09.867Z,103114.81
2018-12-25T13:29:38.406Z,103121.05
2018-12-25T13:32:18.799Z,103121.33
2018-12-25T13:35:06.892Z,103126.50
2018-12-25T13:37:48.336Z,103117.52
2018-12-25T13:40:36.303Z,103113.23
2018-12-25T13:43:17.516Z,103116.46
2018-12-25T13:46:07.383Z,103122.42
2018-12-25T13:49:07.824Z,103122.98
2018-12-25T13:51:49.175Z,103129.50
2018-12-25T13:54:30.280Z,103130.34
2018-12-25T13:57:18.407Z,103134.14
2018-12-25T13:59:59.414Z,103138.48
2018-12-25T14:02:47.163Z,103127.59
2018-12-25T14:05:26.171Z,103126.23
2018-12-25T14:08:14.267Z,103133.05
2018-12-25T14:10:53.513Z,103133.88
2018-12-25T14:13:41.454Z,103133.03
2018-12-25T14:16:21.892Z,103135.74
2018-12-25T14:19:09.948Z,103133.88
2018-12-25T14:21:51.108Z,103134.69
2018-12-25T14:24:39.041Z,103134.95
2018-12-25T14:27:20.121Z,103134.70
2018-12-25T14:30:08.274Z,103143.11
2018-12-25T14:32:49.360Z,103148.27
2018-12-25T14:35:37.431Z,103155.84
2018-12-25T14:38:18.264Z,103147.19
2018-12-25T14:41:06.607Z,103145.27
2018-12-25T14:43:48.480Z,103134.70
2018-12-25T14:46:36.402Z,103131.72
2018-12-25T14:49:18.263Z,103139.34
2018-12-25T14:52:00.667Z,103141.80
2018-12-25T14:54:42.137Z,103151.02
2018-12-25T14:57:23.470Z,103149.39
2018-12-25T15:00:11.423Z,103143.41
2018-12-25T15:02:52.937Z,103142.32
2018-12-25T15:05:40.919Z,103144.47
2018-12-25T15:08:23.963Z,103142.32
2018-12-25T15:11:11.772Z,103143.68
2018-12-25T15:13:53.437Z,103155.89
2018-12-25T15:16:41.388Z,103143.13
2018-12-25T15:19:22.640Z,103147.48
2018-12-25T15:22:10.583Z,103137.70
2018-12-25T15:24:39.266Z,103129.59
2018-12-25T15:27:27.322Z,103134.16
2018-12-25T15:30:08.115Z,103134.70
2018-12-25T15:32:56.262Z,103132.81
2018-12-25T15:35:37.863Z,103136.33
2018-12-25T15:38:06.299Z,103137.96
2018-12-25T15:40:47.763Z,103130.91
2018-12-25T15:43:35.731Z,103136.59
2018-12-25T15:46:17.016Z,103138.52
2018-12-25T15:49:04.971Z,103134.16
2018-12-25T15:51:46.337Z,103125.74
2018-12-25T15:54:34.208Z,103125.45
2018-12-25T15:57:15.431Z,103119.51
2018-12-25T16:00:05.061Z,103115.17
2018-12-25T16:02:45.796Z,103125.23
2018-12-25T16:05:33.826Z,103114.91
2018-12-25T16:08:14.512Z,103115.69
2018-12-25T16:11:02.477Z,103118.41
2018-12-25T16:13:43.671Z,103118.41
2018-12-25T16:16:31.621Z,103114.34
2018-12-25T16:19:10.831Z,103105.94
2018-12-25T16:21:58.805Z,103116.27
2018-12-25T16:24:40.454Z,103108.93
2018-12-25T16:27:28.470Z,103119.53
2018-12-25T16:30:09.368Z,103117.33
2018-12-25T16:32:57.218Z,103120.84
2018-12-25T16:35:38.306Z,103125.74
2018-12-25T16:38:26.185Z,103136.31
2018-12-25T16:41:05.444Z,103125.47
2018-12-25T16:43:53.237Z,103125.48
2018-12-25T16:46:34.579Z,103132.52
2018-12-25T16:49:22.768Z,103121.69
2018-12-25T16:52:03.561Z,103118.95
2018-12-25T16:54:51.541Z,103113.78
2018-12-25T16:57:32.578Z,103114.89
2018-12-25T17:00:20.365Z,103115.98
2018-12-25T17:03:01.917Z,103117.35
2018-12-25T17:05:50.260Z,103104.31
2018-12-25T17:08:31.265Z,103103.50
2018-12-25T17:11:12.285Z,103102.13
2018-12-25T17:14:00.315Z,103094.53
2018-12-25T17:16:41.440Z,103099.95
2018-12-25T17:19:29.174Z,103101.59
2018-12-25T17:22:10.372Z,103100.23
2018-12-25T17:24:59.702Z,103100.52
2018-12-25T17:28:01.492Z,103098.34
2018-12-25T17:30:49.656Z,103105.62
2018-12-25T17:33:30.674Z,103105.38
2018-12-25T17:36:18.914Z,103108.93
2018-12-25T17:38:59.731Z,103103.48
2018-12-25T17:41:47.947Z,103106.20
2018-12-25T17:44:31.282Z,103108.92
2018-12-25T17:47:19.111Z,103114.59
2018-12-25T17:49:59.864Z,103106.20
2018-12-25T17:52:40.870Z,103119.23
2018-12-25T17:55:21.491Z,103114.08
2018-12-25T17:58:09.423Z,103111.91
2018-12-25T18:00:48.547Z,103105.91
2018-12-25T18:03:36.409Z,103106.45
2018-12-25T18:06:17.126Z,103109.17
2018-12-25T18:09:05.639Z,103116.23
2018-12-25T18:11:46.557Z,103108.89
2018-12-25T18:14:34.525Z,103107.82
2018-12-25T18:17:18.879Z,103114.62
2018-12-25T18:20:05.773Z,103110.23
2018-12-25T18:22:47.267Z,103113.80
2018-12-25T18:25:36.937Z,103117.31
2018-12-25T18:28:18.257Z,103109.17
2018-12-25T18:31:06.176Z,103120.59
2018-12-25T18:33:47.253Z,103115.72
2018-12-25T18:36:35.113Z,103116.45
2018-12-25T18:39:16.075Z,103119.48
2018-12-25T18:42:03.971Z,103123.80
2018-12-25T18:44:45.055Z,103123.00
2018-12-25T18:47:33.007Z,103116.50
2018-12-25T18:50:15.314Z,103112.38
2018-12-25T18:52:56.256Z,103124.06
2018-12-25T18:55:37.174Z,103120.83
2018-12-25T18:58:25.167Z,103119.19
2018-12-25T19:01:06.419Z,103123.24
2018-12-25T19:03:54.778Z,103109.39
2018-12-25T19:06:35.739Z,103122.71
2018-12-25T19:09:23.735Z,103114.02
2018-12-25T19:12:04.762Z,103120.84
2018-12-25T19:15:21.997Z,103121.86
2018-12-25T19:18:03.821Z,103107.53
2018-12-25T19:20:51.819Z,103112.69
2018-12-25T19:23:31.337Z,103107.82
2018-12-25T19:26:19.255Z,103112.68
2018-12-25T19:29:00.782Z,103106.45
2018-12-25T19:31:48.731Z,103112.72
2018-12-25T19:34:29.746Z,103108.37
2018-12-25T19:37:17.655Z,103108.91
2018-12-25T19:39:58.719Z,103105.64
2018-12-25T19:42:46.567Z,103104.56
2018-12-25T19:45:28.780Z,103115.18
2018-12-25T19:48:16.789Z,103109.74
2018-12-25T19:50:57.875Z,103108.64
2018-12-25T19:53:45.778Z,103107.03
2018-12-25T19:56:27.268Z,103112.18
2018-12-25T19:59:15.159Z,103107.80
2018-12-25T20:01:56.325Z,103111.06
2018-12-25T20:05:04.950Z,103097.77
2018-12-25T20:07:57.327Z,103098.08
2018-12-25T20:11:24.211Z,103097.28
2018-12-25T20:14:27.932Z,103088.06
2018-12-25T20:17:41.129Z,103085.11
2018-12-25T20:20:38.563Z,103099.23
2018-12-25T20:24:05.305Z,103097.06
2018-12-25T20:27:23.910Z,103098.94
2018-12-25T20:30:50.695Z,103098.13
2018-12-25T20:33:53.893Z,103088.92
2018-12-25T20:37:20.498Z,103093.55
2018-12-25T20:40:20.709Z,103086.50
2018-12-25T20:43:20.880Z,103089.73
2018-12-25T20:49:48.147Z,103091.92
2018-12-25T20:52:48.273Z,103090.84
2018-12-25T20:55:48.515Z,103090.56
2018-12-25T20:59:15.346Z,103084.60
2018-12-25T21:02:16.083Z,103080.53
2018-12-25T21:05:42.842Z,103079.71
2018-12-25T21:08:43.459Z,103083.51
2018-12-25T21:12:10.231Z,103080.54
2018-12-25T21:15:12.067Z,103083.78
2018-12-25T21:18:38.889Z,103077.49
2018-12-25T21:21:39.435Z,103074.51
2018-12-25T21:25:09.869Z,103069.11
2018-12-25T21:27:48.177Z,103072.33
2018-12-25T21:34:04.275Z,103067.46
2018-12-25T21:36:49.572Z,103073.13
2018-12-25T21:39:38.003Z,103073.13
2018-12-25T21:42:18.780Z,103068.52
2018-12-25T21:45:07.111Z,103067.16
2018-12-25T21:47:48.812Z,103073.66
2018-12-25T21:50:36.940Z,103068.52
2018-12-25T21:53:17.772Z,103065.55
2018-12-25T21:56:05.848Z,103056.28
2018-12-25T21:58:46.727Z,103059.03
2018-12-25T22:01:34.696Z,103055.23
2018-12-25T22:04:16.283Z,103057.39
2018-12-25T22:06:57.761Z,103055.23
2018-12-25T22:09:45.977Z,103061.43
2018-12-25T22:12:26.834Z,103057.37
2018-12-25T22:15:14.793Z,103062.55
2018-12-25T22:17:55.918Z,103050.36
2018-12-25T22:20:43.878Z,103056.04
2018-12-25T22:23:25.361Z,103050.09
2018-12-25T22:26:13.408Z,103049.81
2018-12-25T22:28:54.422Z,103059.30
2018-12-25T22:31:42.405Z,103051.72
2018-12-25T22:34:23.686Z,103048.47
2018-12-25T22:37:11.720Z,103048.20
2018-12-25T22:39:53.047Z,103044.69
2018-12-25T22:42:41.004Z,103049.59
2018-12-25T22:45:22.142Z,103050.13
2018-12-25T22:48:10.186Z,103043.64
2018-12-25T22:50:51.136Z,103045.25
2018-12-25T22:53:32.361Z,103044.17
2018-12-25T22:56:13.082Z,103039.30
2018-12-25T22:58:54.148Z,103042.02
2018-12-25T23:01:42.512Z,103039.56
2018-12-25T23:04:23.365Z,103036.06
2018-12-25T23:07:11.226Z,103040.95
2018-12-25T23:09:52.185Z,103035.00
2018-12-25T23:12:39.947Z,103034.19
2018-12-25T23:15:40.458Z,103030.38
2018-12-25T23:18:28.516Z,103035.83
2018-12-25T23:21:09.276Z,103034.73
2018-12-25T23:23:57.058Z,103031.75
2018-12-25T23:26:38.292Z,103024.43
2018-12-25T23:29:26.437Z,103028.50
2018-12-25T23:32:07.723Z,103034.99
2018-12-25T23:34:55.781Z,103030.66
2018-12-25T23:37:36.659Z,103030.94
2018-12-25T23:40:24.894Z,103027.96
2018-12-25T23:43:05.741Z,103034.17
2018-12-25T23:45:53.697Z,103038.27
2018-12-25T23:48:34.397Z,103027.96
2018-12-25T23:51:15.945Z,103024.16
2018-12-25T23:54:03.952Z,103012.50
2018-12-25T23:56:46.930Z,103010.60
2018-12-25T23:59:35.592Z,103007.10
